Time;durP1;ratioP1;P1;durP2;ratioP2;P2;SDS_P1;SDS_P2;PMS_P1;PMS_P2;Temp;Humidity;BMP_temperature;BMP_pressure;BME280_temperature;BME280_humidity;BME280_pressure;Samples;Min_cycle;Max_cycle;Signal;HPM_P1;HPM_P2
2022/02/07 00:00:44;;;;;;;12.25;1.52;;;;;;;2.83;100.00;100612.50;5131257;27;20043;-45
2022/02/07 00:03:17;;;;;;;11.80;1.20;;;;;;;2.84;100.00;100619.41;5134941;27;20042;-46
2022/02/07 00:05:47;;;;;;;12.43;1.67;;;;;;;2.84;100.00;100622.00;5135336;27;20058;-44
2022/02/07 00:08:16;;;;;;;11.82;1.30;;;;;;;2.84;100.00;100622.84;5131863;27;20043;-45
2022/02/07 00:10:44;;;;;;;10.23;1.85;;;;;;;2.85;100.00;100628.88;5134819;27;20061;-46
2022/02/07 00:13:12;;;;;;;11.85;1.83;;;;;;;2.87;100.00;100633.13;5120294;27;20051;-45
2022/02/07 00:15:40;;;;;;;12.10;1.90;;;;;;;2.94;100.00;100625.94;5135839;27;20043;-47
2022/02/07 00:18:09;;;;;;;13.23;1.73;;;;;;;2.90;100.00;100634.75;5131837;27;20047;-47
2022/02/07 00:20:38;;;;;;;18.92;2.00;;;;;;;2.94;100.00;100658.88;5116092;27;20054;-49
2022/02/07 00:23:08;;;;;;;13.75;1.65;;;;;;;2.94;100.00;100701.28;5134321;27;20520;-50
2022/02/07 00:25:36;;;;;;;11.80;1.80;;;;;;;2.92;100.00;100720.44;5128799;27;20039;-49
2022/02/07 00:28:05;;;;;;;10.50;1.58;;;;;;;2.94;100.00;100729.03;5130485;27;20481;-48
2022/02/07 00:30:33;;;;;;;7.97;1.27;;;;;;;2.81;100.00;100719.06;5133146;27;20620;-46
2022/02/07 00:33:01;;;;;;;3.83;0.82;;;;;;;2.72;100.00;100708.16;5130780;27;20031;-48
2022/02/07 00:35:29;;;;;;;6.97;0.95;;;;;;;2.62;99.94;100711.06;5140753;27;20089;-49
2022/02/07 00:38:03;;;;;;;8.80;1.10;;;;;;;2.59;99.51;100724.16;5142178;27;20066;-48
2022/02/07 00:40:44;;;;;;;6.40;1.10;;;;;;;2.56;96.04;100731.19;5134643;27;20055;-49
2022/02/07 00:43:27;;;;;;;7.00;0.88;;;;;;;2.64;94.59;100742.19;5132329;27;20678;-50
2022/02/07 00:45:58;;;;;;;4.57;0.90;;;;;;;2.59;94.88;100747.53;5130781;27;20401;-46
2022/02/07 00:48:27;;;;;;;8.27;1.50;;;;;;;2.64;93.63;100752.56;5134253;27;20051;-48
2022/02/07 00:50:56;;;;;;;5.88;0.88;;;;;;;2.59;94.58;100759.66;5133966;27;20071;-48
2022/02/07 00:53:25;;;;;;;8.73;1.13;;;;;;;2.56;94.14;100765.78;5134043;27;20374;-46
2022/02/07 00:55:55;;;;;;;4.95;1.08;;;;;;;2.56;96.35;100777.94;5123306;27;20050;-47
2022/02/07 00:58:23;;;;;;;7.15;1.17;;;;;;;2.54;96.07;100790.97;5137841;27;20375;-50
2022/02/07 01:00:52;;;;;;;6.75;1.17;;;;;;;2.58;95.49;100795.16;5132308;27;20065;-48
2022/02/07 01:03:21;;;;;;;5.25;0.98;;;;;;;2.57;95.23;100809.03;5130475;27;20431;-45
2022/02/07 01:05:51;;;;;;;6.82;1.30;;;;;;;2.64;95.54;100812.28;5130226;27;20047;-48
2022/02/07 01:08:25;;;;;;;5.57;1.20;;;;;;;2.58;96.79;100810.75;5143019;27;20042;-45
2022/02/07 01:10:59;;;;;;;10.93;1.38;;;;;;;2.65;96.14;100833.00;5133605;27;20043;-48
2022/02/07 01:13:43;;;;;;;7.95;1.70;;;;;;;2.61;97.61;100830.56;5139419;27;20084;-48
2022/02/07 01:16:28;;;;;;;9.32;1.27;;;;;;;2.61;97.76;100836.59;5133302;27;20047;-47
2022/02/07 01:19:21;;;;;;;10.98;1.60;;;;;;;2.65;96.83;100832.16;5135918;27;20409;-54
2022/02/07 01:22:11;;;;;;;6.88;1.13;;;;;;;2.62;97.79;100842.63;5129815;27;20047;-55
2022/02/07 01:47:32;;;;;;;11.32;1.52;;;;;;;2.54;100.00;100934.63;5132122;27;20061;-54
2022/02/07 01:50:46;;;;;;;13.75;1.83;;;;;;;2.52;100.00;100941.63;5125918;27;20497;-53
2022/02/07 01:53:19;;;;;;;14.52;2.13;;;;;;;2.50;100.00;100958.97;5131945;27;20122;-55
2022/02/07 01:55:54;;;;;;;9.85;1.83;;;;;;;2.49;100.00;100977.19;5132249;27;20047;-53
2022/02/07 01:58:23;;;;;;;10.00;1.50;;;;;;;2.51;100.00;100981.44;5132809;27;20043;-55
2022/02/07 02:00:52;;;;;;;12.93;1.85;;;;;;;2.52;100.00;100988.34;5140458;27;20087;-52
2022/02/07 02:03:22;;;;;;;14.75;1.70;;;;;;;2.49;100.00;100996.22;5132899;27;20051;-55
2022/02/07 02:05:51;;;;;;;15.57;1.73;;;;;;;2.51;100.00;101001.38;5132133;27;20051;-56
2022/02/07 02:08:20;;;;;;;10.77;2.97;;;;;;;2.50;100.00;101020.44;5141240;27;20110;-56
2022/02/07 02:10:53;;;;;;;9.15;1.38;;;;;;;2.56;100.00;101019.41;5151867;27;20126;-55
2022/02/07 02:13:24;;;;;;;;;;;;;;;2.52;100.00;101034.22;5140061;27;20070;-55
2022/02/07 02:15:59;;;;;;;16.42;2.13;;;;;;;2.55;100.00;101039.34;5132244;27;19923;-55
2022/02/07 02:35:24;;;;;;;10.85;2.78;;;;;;;2.58;100.00;101098.09;5108533;28;20058;-55
2022/02/07 02:37:56;;;;;;;14.25;2.28;;;;;;;2.54;100.00;101106.00;5112402;28;20126;-55
2022/02/07 02:45:59;;;;;;;13.90;1.90;;;;;;;2.66;100.00;101124.75;5112595;28;20135;-55
2022/02/07 02:48:28;;;;;;;13.07;2.70;;;;;;;2.76;100.00;101125.34;5112564;28;20059;-54
2022/02/07 02:51:06;;;;;;;14.23;1.70;;;;;;;2.69;100.00;101143.69;5112612;28;20099;-56
2022/02/07 02:53:35;;;;;;;15.88;2.22;;;;;;;2.70;100.00;101145.38;5112067;28;20485;-54
2022/02/07 02:56:05;;;;;;;15.05;2.38;;;;;;;2.67;100.00;101152.41;5107166;28;20063;-56
2022/02/07 02:58:33;;;;;;;19.50;2.28;;;;;;;2.71;100.00;101169.59;5110520;28;20040;-55
2022/02/07 03:01:01;;;;;;;13.90;2.00;;;;;;;2.69;100.00;101167.06;5112368;28;20052;-54
2022/02/07 03:03:29;;;;;;;25.55;3.47;;;;;;;2.73;100.00;101174.75;5111740;28;20048;-56
2022/02/07 03:05:57;;;;;;;11.65;2.30;;;;;;;2.69;100.00;101177.44;5107932;28;20056;-54
2022/02/07 03:08:26;;;;;;;19.95;2.03;;;;;;;2.71;100.00;101182.59;5109808;28;20549;-54
2022/02/07 03:11:02;;;;;;;14.70;2.70;;;;;;;2.72;100.00;101194.69;5112359;28;20043;-56
2022/02/07 03:13:48;;;;;;;14.65;1.98;;;;;;;2.79;100.00;101193.63;5112404;28;20059;-56
2022/02/07 03:16:38;;;;;;;15.00;3.05;;;;;;;2.75;100.00;101209.34;5111936;28;20417;-54
2022/02/07 03:19:08;;;;;;;14.88;1.83;;;;;;;2.77;100.00;101217.94;5108088;28;20031;-53
2022/02/07 03:21:37;;;;;;;14.88;2.10;;;;;;;2.73;100.00;101229.31;5110529;28;20493;-53
2022/02/07 03:24:07;;;;;;;17.67;2.03;;;;;;;2.73;100.00;101235.38;5112136;28;20043;-55
2022/02/07 03:26:38;;;;;;;21.85;3.45;;;;;;;2.78;100.00;101240.44;5112033;28;20050;-55
2022/02/07 03:29:08;;;;;;;17.70;1.98;;;;;;;2.79;100.00;101248.19;5112369;28;20421;-55
2022/02/07 03:31:36;;;;;;;14.57;2.92;;;;;;;2.78;100.00;101256.88;5112186;28;20478;-55
2022/02/07 03:34:06;;;;;;;13.15;2.90;;;;;;;2.82;100.00;101268.91;5109603;28;20053;-55
2022/02/07 03:36:34;;;;;;;13.38;1.77;;;;;;;2.90;100.00;101278.25;5111869;28;20151;-55
2022/02/07 03:39:04;;;;;;;19.00;2.08;;;;;;;2.94;100.00;101285.06;5115011;28;20036;-54
2022/02/07 03:41:36;;;;;;;18.30;2.10;;;;;;;2.90;100.00;101281.69;5097726;28;20425;-53
2022/02/07 03:44:05;;;;;;;11.60;1.80;;;;;;;2.97;99.94;101290.16;5115663;28;20048;-54
2022/02/07 03:46:37;;;;;;;21.75;2.17;;;;;;;2.93;100.00;101292.00;5115726;28;20066;-55
2022/02/07 03:49:05;;;;;;;15.10;2.00;;;;;;;2.91;100.00;101296.38;5115755;28;20050;-54
2022/02/07 03:51:33;;;;;;;16.38;2.13;;;;;;;2.95;100.00;101303.19;5115597;28;20048;-56
2022/02/07 03:54:01;;;;;;;14.38;2.25;;;;;;;3.01;99.36;101302.19;5115879;28;20502;-55
2022/02/07 03:56:29;;;;;;;14.63;2.83;;;;;;;3.16;98.30;101304.41;5114443;28;20048;-56
2022/02/07 03:58:57;;;;;;;15.93;2.85;;;;;;;3.20;98.69;101324.22;5111357;28;20054;-55
2022/02/07 04:01:27;;;;;;;17.70;2.33;;;;;;;3.20;99.05;101337.22;5113937;28;20036;-56
2022/02/07 04:03:56;;;;;;;13.50;2.03;;;;;;;3.20;99.13;101347.63;5115627;28;20043;-55
2022/02/07 04:06:25;;;;;;;14.35;2.72;;;;;;;3.21;98.73;101338.91;5111848;28;20047;-56
2022/02/07 04:08:58;;;;;;;16.58;2.25;;;;;;;3.23;98.90;101354.44;5112255;28;20044;-55
2022/02/07 04:11:31;;;;;;;12.07;2.08;;;;;;;3.36;96.32;101358.44;5115434;28;20043;-54
2022/02/07 04:14:00;;;;;;;17.60;2.53;;;;;;;3.37;96.55;101374.91;5115357;28;20135;-55
2022/02/07 04:16:34;;;;;;;18.35;1.88;;;;;;;3.38;96.61;101377.47;5112098;28;20074;-55
2022/02/07 04:19:13;;;;;;;14.35;1.75;;;;;;;3.44;94.93;101399.84;5111370;28;20055;-57
2022/02/07 04:21:43;;;;;;;15.75;2.13;;;;;;;3.45;95.80;101405.91;5114982;28;20510;-54
2022/02/07 04:24:13;;;;;;;11.57;2.10;;;;;;;3.49;95.78;101413.59;5114532;28;20051;-55
2022/02/07 04:26:41;;;;;;;15.60;1.95;;;;;;;3.51;94.86;101414.38;5114808;28;20052;-55
2022/02/07 04:29:09;;;;;;;13.80;1.58;;;;;;;3.51;95.17;101418.75;5115111;28;20051;-56
2022/02/07 04:31:37;;;;;;;13.80;1.90;;;;;;;3.53;95.91;101424.75;5115148;28;20100;-54
2022/02/07 04:34:07;;;;;;;22.10;2.83;;;;;;;3.54;96.21;101429.06;5114860;28;20381;-55
2022/02/07 04:36:35;;;;;;;21.35;3.15;;;;;;;3.65;95.37;101444.38;5072600;28;20517;-53
2022/02/07 04:39:03;;;;;;;17.75;2.53;;;;;;;3.67;95.08;101450.41;5069767;28;20044;-55
2022/02/07 04:41:31;;;;;;;10.30;1.70;;;;;;;3.67;96.32;101460.81;5073665;28;20497;-56
2022/02/07 04:44:03;;;;;;;15.90;2.33;;;;;;;3.75;95.94;101473.63;5073171;28;20056;-52
2022/02/07 04:46:44;;;;;;;14.60;2.00;;;;;;;3.77;94.81;101490.91;5070519;28;20556;-54
2022/02/07 04:49:38;;;;;;;15.45;2.15;;;;;;;3.80;96.07;101484.75;5072202;28;20510;-56
2022/02/07 04:52:19;;;;;;;17.95;2.78;;;;;;;3.85;95.04;101494.16;5073832;28;20052;-45
2022/02/07 04:55:04;;;;;;;23.77;2.72;;;;;;;3.94;95.49;101507.81;5073970;28;20045;-45
2022/02/07 04:57:56;;;;;;;12.85;2.30;;;;;;;3.94;95.93;101523.41;5073876;28;20387;-48
2022/02/07 05:03:12;;;;;;;16.13;1.77;;;;;;;4.01;96.57;101522.38;5072042;28;20063;-45
2022/02/07 05:13:54;;;;;;;15.13;3.03;;;;;;;4.03;96.47;101554.41;5073858;28;20057;-49
2022/02/07 05:16:25;;;;;;;16.80;1.77;;;;;;;4.03;97.29;101567.44;5073665;28;20376;-46
2022/02/07 05:18:57;;;;;;;17.85;2.92;;;;;;;4.02;97.20;101565.72;5073801;28;20122;-45
2022/02/07 05:21:26;;;;;;;13.65;1.98;;;;;;;4.07;97.60;101577.72;5073027;28;20052;-46
2022/02/07 05:23:55;;;;;;;11.82;2.00;;;;;;;4.05;98.94;101583.88;5073247;28;20380;-45
2022/02/07 05:26:24;;;;;;;15.80;2.78;;;;;;;4.06;98.12;101586.44;5073344;28;20032;-46
2022/02/07 05:28:53;;;;;;;14.27;2.30;;;;;;;4.08;98.61;101594.22;5073314;28;20052;-47
2022/02/07 05:31:22;;;;;;;20.17;2.15;;;;;;;4.11;97.27;101601.94;5073433;28;20056;-46
2022/02/07 05:33:50;;;;;;;24.13;2.85;;;;;;;4.14;97.28;101598.41;5069507;28;20048;-48
2022/02/07 05:36:19;;;;;;;15.45;2.38;;;;;;;4.10;98.38;101617.59;5106146;28;20410;-43
2022/02/07 05:38:51;;;;;;;19.65;2.22;;;;;;;4.12;98.71;101615.78;5113624;28;20126;-46
2022/02/07 05:41:19;;;;;;;18.73;1.95;;;;;;;4.10;98.63;101626.25;5113780;28;20051;-46
2022/02/07 05:43:50;;;;;;;17.50;2.47;;;;;;;4.10;99.26;101635.81;5113586;28;20063;-45
2022/02/07 05:46:20;;;;;;;16.55;2.25;;;;;;;4.11;99.45;101638.38;5113144;28;20135;-46
2022/02/07 05:48:48;;;;;;;13.75;2.55;;;;;;;4.16;99.02;101639.13;5108785;28;20047;-47
2022/02/07 05:51:16;;;;;;;14.63;2.17;;;;;;;4.16;99.24;101635.66;5110643;28;20048;-44
2022/02/07 05:53:44;;;;;;;17.60;2.45;;;;;;;4.15;99.67;101658.25;5113445;28;20047;-44
2022/02/07 05:56:14;;;;;;;18.60;2.33;;;;;;;4.14;100.00;101656.53;5113295;28;20117;-47
2022/02/07 05:58:42;;;;;;;16.55;2.92;;;;;;;4.15;100.00;101663.44;5112574;28;20043;-46
2022/02/07 06:01:12;;;;;;;10.75;2.20;;;;;;;4.19;99.98;101664.22;5113119;28;20052;-46
2022/02/07 06:03:40;;;;;;;15.10;1.92;;;;;;;4.20;100.00;101658.97;5113380;28;20051;-45
2022/02/07 06:06:09;;;;;;;10.88;2.22;;;;;;;4.19;100.00;101667.69;5112856;28;20161;-47
2022/02/07 06:08:37;;;;;;;16.40;2.35;;;;;;;4.23;100.00;101699.72;5113163;28;20035;-45
2022/02/07 06:11:07;;;;;;;15.80;2.22;;;;;;;4.27;100.00;101734.31;5113014;28;20043;-47
2022/02/07 06:13:38;;;;;;;8.90;1.70;;;;;;;3.74;100.00;101727.75;5113051;28;20134;-48
2022/02/07 06:16:06;;;;;;;10.80;1.42;;;;;;;3.62;100.00;101733.25;5115976;27;20047;-45
2022/02/07 06:18:35;;;;;;;8.95;1.02;;;;;;;3.64;100.00;101734.91;5107226;27;20047;-51
2022/02/07 06:21:05;;;;;;;7.45;1.42;;;;;;;3.59;100.00;101741.97;5118525;27;20047;-48
2022/02/07 06:23:34;;;;;;;13.02;1.63;;;;;;;3.57;100.00;101748.09;5111349;27;20158;-51
2022/02/07 06:26:02;;;;;;;14.90;1.77;;;;;;;3.68;100.00;101759.09;5117220;27;20413;-47
2022/02/07 06:28:30;;;;;;;13.95;2.42;;;;;;;3.69;100.00;101756.47;5115577;27;20043;-46
2022/02/07 06:31:00;;;;;;;14.43;2.40;;;;;;;3.77;100.00;101751.09;5114886;27;20537;-47
2022/02/07 06:33:28;;;;;;;14.45;2.22;;;;;;;3.73;100.00;101763.31;5112211;28;20048;-47
2022/02/07 06:35:58;;;;;;;9.93;2.17;;;;;;;3.67;100.00;101763.47;5118383;27;20035;-49
2022/02/07 06:38:27;;;;;;;14.75;2.30;;;;;;;3.71;100.00;101767.72;5108298;28;20062;-47
2022/02/07 06:40:55;;;;;;;11.27;1.55;;;;;;;3.70;100.00;101770.34;5107102;28;20452;-48
2022/02/07 06:43:23;;;;;;;18.33;3.05;;;;;;;3.66;100.00;101779.13;5111304;28;20051;-45
2022/02/07 06:45:52;;;;;;;14.77;2.28;;;;;;;3.67;100.00;101786.03;5110771;28;20061;-45
2022/02/07 06:48:21;;;;;;;13.80;2.35;;;;;;;3.56;100.00;101794.06;5116446;28;20051;-47
2022/02/07 06:50:49;;;;;;;13.57;2.00;;;;;;;3.61;100.00;101799.16;5107134;28;20421;-46
2022/02/07 06:53:18;;;;;;;27.73;3.20;;;;;;;3.62;100.00;101806.09;5110811;28;20070;-47
2022/02/07 06:55:48;;;;;;;18.45;2.40;;;;;;;3.61;100.00;101812.16;5111665;28;20101;-44
2022/02/07 06:58:17;;;;;;;17.90;2.45;;;;;;;3.67;100.00;101812.06;5110985;28;20093;-47
2022/02/07 07:00:46;;;;;;;16.73;2.30;;;;;;;3.58;100.00;101812.25;5118499;28;20093;-44
2022/02/07 07:03:16;;;;;;;16.65;2.92;;;;;;;3.60;100.00;101824.31;5096754;28;20067;-45
2022/02/07 07:05:48;;;;;;;12.48;2.20;;;;;;;3.55;100.00;101828.75;5111690;28;20408;-46
2022/02/07 07:08:16;;;;;;;22.73;3.13;;;;;;;3.53;100.00;101834.00;5110563;28;20036;-48
2022/02/07 07:10:46;;;;;;;20.10;3.55;;;;;;;3.61;100.00;101845.97;5121716;27;20073;-46
2022/02/07 07:13:18;;;;;;;22.33;4.13;;;;;;;3.64;100.00;101844.19;5112180;27;20051;-46
2022/02/07 07:15:52;;;;;;;14.13;2.60;;;;;;;3.63;100.00;101845.06;5113552;27;20040;-47
2022/02/07 07:18:20;;;;;;;15.68;2.80;;;;;;;3.61;100.00;101846.84;5115172;27;20048;-46
2022/02/07 07:20:50;;;;;;;20.55;3.08;;;;;;;3.58;100.00;101844.31;5114443;27;20089;-46
2022/02/07 07:23:18;;;;;;;17.80;2.50;;;;;;;3.58;100.00;101861.66;5112127;27;20043;-46
2022/02/07 07:25:46;;;;;;;16.23;2.30;;;;;;;3.58;100.00;101857.31;5112209;27;20081;-44
2022/02/07 07:28:17;;;;;;;15.75;2.40;;;;;;;3.64;100.00;101872.81;5114831;27;20045;-48
2022/02/07 07:30:49;;;;;;;22.02;3.30;;;;;;;3.60;100.00;101885.88;5114842;27;20046;-45
2022/02/07 07:33:21;;;;;;;17.00;2.88;;;;;;;3.53;100.00;101899.03;5122425;27;20359;-49
2022/02/07 07:35:51;;;;;;;21.48;3.15;;;;;;;3.52;100.00;101912.91;5114883;27;20766;-46
2022/02/07 07:38:19;;;;;;;23.73;3.10;;;;;;;3.57;100.00;101940.59;5114829;27;20409;-49
2022/02/07 07:40:48;;;;;;;25.35;3.25;;;;;;;3.57;100.00;101951.00;5114642;27;20052;-45
2022/02/07 07:43:16;;;;;;;21.50;3.20;;;;;;;3.57;100.00;101954.44;5115166;27;20121;-49
2022/02/07 07:45:46;;;;;;;19.02;2.45;;;;;;;3.58;100.00;101957.91;5114813;27;20054;-46
2022/02/07 07:48:20;;;;;;;16.38;2.67;;;;;;;3.58;100.00;101958.75;5115457;28;20046;-45
2022/02/07 07:50:54;;;;;;;16.52;2.60;;;;;;;3.57;100.00;101962.25;5115758;28;20049;-45
2022/02/07 07:53:40;;;;;;;19.90;2.40;;;;;;;3.53;100.00;101965.78;5115663;28;20524;-45
2022/02/07 08:01:48;;;;;;;19.38;3.15;;;;;;;3.66;100.00;101998.50;5115588;28;20127;-45
2022/02/07 08:04:20;;;;;;;23.75;2.75;;;;;;;3.68;100.00;102006.28;5115806;28;20053;-50
2022/02/07 08:06:54;;;;;;;20.90;2.88;;;;;;;3.80;100.00;102011.25;5115037;28;20042;-47
2022/02/07 08:12:11;;;;;;;21.73;3.42;;;;;;;3.94;100.00;102044.88;5115244;28;20035;-46
2022/02/07 08:14:39;;;;;;;18.60;2.83;;;;;;;4.10;100.00;102047.19;5114951;28;20051;-46
2022/02/07 08:17:27;;;;;;;20.60;2.45;;;;;;;4.25;100.00;102048.63;5093378;28;20048;-44
2022/02/07 08:19:56;;;;;;;16.58;2.70;;;;;;;4.34;100.00;102053.69;5113217;28;20543;-44
2022/02/07 08:22:24;;;;;;;16.90;2.63;;;;;;;4.43;100.00;102052.63;5114385;28;20066;-45
2022/02/07 08:24:56;;;;;;;18.02;3.92;;;;;;;4.56;100.00;102049.72;5114988;28;20486;-44
2022/02/07 08:27:26;;;;;;;15.13;2.47;;;;;;;4.57;100.00;102066.25;5113838;28;20130;-44
2022/02/07 08:29:55;;;;;;;14.15;2.40;;;;;;;4.65;100.00;102061.72;5111310;28;20059;-46
2022/02/07 08:32:24;;;;;;;15.93;2.10;;;;;;;4.73;100.00;102064.16;5112883;28;20397;-46
2022/02/07 08:34:52;;;;;;;17.38;2.67;;;;;;;4.90;100.00;102063.81;5114080;28;20044;-48
2022/02/07 08:37:21;;;;;;;21.08;2.92;;;;;;;4.86;100.00;102063.00;5114748;28;20058;-49
2022/02/07 08:39:49;;;;;;;21.33;3.30;;;;;;;5.03;100.00;102069.59;5113941;28;20088;-46
2022/02/07 08:42:18;;;;;;;19.13;2.70;;;;;;;5.49;100.00;102062.47;5111279;28;20606;-48
2022/02/07 08:44:47;;;;;;;17.92;2.72;;;;;;;5.35;100.00;102062.78;5112727;28;20110;-50
2022/02/07 08:47:16;;;;;;;13.77;2.53;;;;;;;5.17;100.00;102070.16;5114454;28;20059;-44
2022/02/07 08:49:44;;;;;;;19.02;3.17;;;;;;;5.26;100.00;102082.09;5110307;28;20096;-47
2022/02/07 08:52:15;;;;;;;13.60;2.17;;;;;;;5.53;100.00;102078.00;5111779;28;20071;-48
2022/02/07 08:54:43;;;;;;;17.67;2.55;;;;;;;5.47;100.00;102075.53;5114555;28;20624;-48
2022/02/07 08:57:20;;;;;;;20.52;2.40;;;;;;;5.86;100.00;102077.19;5114540;28;20550;-47
2022/02/07 09:00:05;;;;;;;19.50;3.17;;;;;;;5.87;99.68;102079.75;5114287;28;20052;-46
2022/02/07 09:03:06;;;;;;;13.73;2.58;;;;;;;5.98;99.03;102095.19;5114597;28;20047;-45
2022/02/07 09:05:47;;;;;;;17.42;2.72;;;;;;;6.04;97.36;102099.38;5112731;28;20469;-47
2022/02/07 09:08:26;;;;;;;12.85;2.65;;;;;;;5.87;98.61;102105.03;5110757;28;20522;-47
2022/02/07 09:10:56;;;;;;;21.08;3.08;;;;;;;6.06;98.06;102115.88;5114210;28;20069;-49
2022/02/07 09:13:30;;;;;;;21.77;3.38;;;;;;;5.97;97.57;102126.53;5114322;28;20456;-46
2022/02/07 09:18:46;;;;;;;20.60;2.70;;;;;;;6.13;97.61;102143.56;5112096;28;20056;-48
2022/02/07 09:21:15;;;;;;;16.25;3.08;;;;;;;6.16;97.96;102147.84;5113890;28;20130;-46
2022/02/07 09:23:45;;;;;;;15.98;3.95;;;;;;;6.09;97.76;102147.16;5113965;28;20036;-45
2022/02/07 09:26:14;;;;;;;16.95;3.03;;;;;;;6.24;97.23;102146.78;5113784;28;20051;-46
2022/02/07 09:28:42;;;;;;;20.35;3.15;;;;;;;6.31;96.24;102159.66;5113347;28;20054;-44
2022/02/07 09:31:13;;;;;;;14.13;2.53;;;;;;;6.51;97.04;102162.59;5113407;28;20474;-48
2022/02/07 09:33:44;;;;;;;18.75;2.38;;;;;;;6.70;96.63;102165.56;5112662;28;20050;-43
2022/02/07 09:36:15;;;;;;;17.42;2.95;;;;;;;6.72;94.35;102178.59;5113486;28;20126;-43
2022/02/07 09:38:44;;;;;;;17.13;3.55;;;;;;;6.64;95.74;102173.59;5113533;28;20047;-44
2022/02/07 09:41:16;;;;;;;22.00;2.83;;;;;;;6.66;93.58;102178.78;5095068;28;20047;-47
2022/02/07 09:43:49;;;;;;;15.48;2.20;;;;;;;6.79;94.19;102182.78;5113576;28;20051;-43
2022/02/07 09:46:33;;;;;;;16.98;2.70;;;;;;;6.92;93.38;102193.72;5113212;28;20051;-46
2022/02/07 09:49:02;;;;;;;17.98;2.72;;;;;;;6.98;92.60;102195.31;5112849;28;20521;-43
2022/02/07 09:51:30;;;;;;;12.40;1.75;;;;;;;7.00;91.86;102204.00;5113363;28;20050;-45
2022/02/07 09:53:59;;;;;;;16.45;2.75;;;;;;;7.24;90.40;102213.75;5113329;28;20048;-47
2022/02/07 09:56:27;;;;;;;15.75;2.53;;;;;;;7.35;89.70;102220.41;5113328;28;20040;-47
2022/02/07 09:58:55;;;;;;;20.63;3.45;;;;;;;7.49;89.63;102212.16;5113176;28;20478;-46
2022/02/07 10:01:28;;;;;;;12.07;2.08;;;;;;;7.39;89.32;102242.97;5113141;28;20052;-43
2022/02/07 10:04:02;;;;;;;19.75;2.92;;;;;;;7.48;88.83;102241.84;5113260;28;20479;-44
2022/02/07 10:06:45;;;;;;;19.80;3.10;;;;;;;7.56;89.08;102250.34;5113094;28;20058;-46
2022/02/07 10:12:08;;;;;;;15.02;2.25;;;;;;;7.42;86.53;102264.69;5102359;28;20540;-46
2022/02/07 10:14:44;;;;;;;25.58;2.97;;;;;;;7.21;85.05;102265.28;5095034;28;20047;-48
2022/02/07 10:17:28;;;;;;;12.50;2.72;;;;;;;7.24;86.53;102279.16;5112845;28;20050;-46
2022/02/07 10:20:15;;;;;;;14.05;2.35;;;;;;;7.00;87.39;102279.84;5112924;28;20054;-44
2022/02/07 10:34:43;;;;;;;14.38;1.95;;;;;;;6.58;83.77;102310.53;5112333;28;20050;-47
2022/02/07 10:40:26;;;;;;;16.45;2.90;;;;;;;6.54;85.55;102305.44;5112730;28;20082;-44
2022/02/07 10:43:21;;;;;;;17.08;2.17;;;;;;;6.73;84.91;102300.59;5112668;28;20047;-46
2022/02/07 10:45:58;;;;;;;16.90;3.08;;;;;;;6.94;84.23;102307.88;5112424;28;20047;-46
2022/02/07 10:48:36;;;;;;;15.15;3.13;;;;;;;7.05;84.19;102315.44;5112250;28;20069;-48
2022/02/07 10:51:12;;;;;;;11.88;2.22;;;;;;;7.28;83.48;102327.91;5112454;28;20498;-45
2022/02/07 10:53:43;;;;;;;16.25;3.10;;;;;;;7.28;83.18;102325.28;5112473;28;20066;-43
2022/02/07 10:56:12;;;;;;;20.33;3.38;;;;;;;7.23;85.81;102329.78;5112274;28;20371;-45
2022/02/07 10:58:42;;;;;;;15.68;3.05;;;;;;;7.22;85.62;102335.06;5112610;28;20497;-42
2022/02/07 11:01:17;;;;;;;16.02;2.05;;;;;;;7.03;85.06;102335.53;5112279;28;20044;-42
2022/02/07 11:03:50;;;;;;;13.07;2.00;;;;;;;7.21;84.61;102339.44;5112387;28;20043;-43
2022/02/07 11:06:25;;;;;;;21.20;2.65;;;;;;;7.65;83.77;102340.84;5094121;28;20056;-47
2022/02/07 11:09:09;;;;;;;15.57;2.30;;;;;;;8.01;81.05;102346.75;5112011;28;20118;-46
2022/02/07 11:17:40;;;;;;;15.80;2.20;;;;;;;8.10;79.38;102345.63;5075707;28;20052;-45
2022/02/07 11:20:27;;;;;;;13.50;2.38;;;;;;;8.20;79.31;102340.97;5112539;28;20395;-45
2022/02/07 11:23:14;;;;;;;17.95;2.38;;;;;;;8.48;75.53;102333.09;5112607;28;20487;-46
2022/02/07 11:25:51;;;;;;;9.50;2.58;;;;;;;8.52;74.84;102341.72;5112279;28;20044;-45
2022/02/07 11:28:25;;;;;;;14.57;2.70;;;;;;;8.63;73.13;102329.13;5112024;28;20053;-44
2022/02/07 11:30:55;;;;;;;12.85;1.75;;;;;;;8.83;71.40;102341.53;5093999;28;20048;-45
2022/02/07 11:33:49;;;;;;;12.02;1.77;;;;;;;8.89;70.06;102322.09;5112113;28;20048;-43
2022/02/07 11:36:25;;;;;;;13.05;2.60;;;;;;;9.15;69.28;102331.72;5111909;28;20060;-45
2022/02/07 11:39:04;;;;;;;13.65;1.52;;;;;;;9.24;68.86;102330.53;5112363;28;20062;-47
2022/02/07 11:42:03;;;;;;;13.07;2.33;;;;;;;9.44;71.11;102333.28;5112183;28;20074;-45
2022/02/07 11:45:25;;;;;;;13.50;1.67;;;;;;;9.65;66.57;102328.13;5112182;28;20040;-47
2022/02/07 11:48:09;;;;;;;11.60;1.55;;;;;;;9.44;66.82;102312.25;5112050;28;20048;-46
2022/02/07 11:50:42;;;;;;;11.23;1.73;;;;;;;9.69;65.85;102323.63;5112097;28;20657;-47
2022/02/07 11:53:12;;;;;;;8.30;1.73;;;;;;;9.59;67.32;102331.00;5112266;28;20089;-50
2022/02/07 11:55:55;;;;;;;11.40;1.63;;;;;;;9.40;67.20;102333.44;5112420;28;20085;-49
2022/02/07 11:58:27;;;;;;;10.70;1.90;;;;;;;9.58;68.03;102343.25;5115722;28;20051;-48
2022/02/07 12:00:58;;;;;;;8.37;1.40;;;;;;;9.47;68.86;102350.69;5116047;28;20423;-44
2022/02/07 12:03:27;;;;;;;8.98;1.52;;;;;;;9.33;66.78;102351.19;5115862;28;20131;-44
2022/02/07 12:05:58;;;;;;;9.18;1.60;;;;;;;9.49;69.30;102351.50;5115858;28;20035;-46
2022/02/07 12:08:32;;;;;;;6.00;1.20;;;;;;;9.30;68.88;102346.06;5115393;28;20035;-48
2022/02/07 12:11:11;;;;;;;15.73;2.08;;;;;;;9.36;65.58;102337.09;5115354;28;20036;-45
2022/02/07 12:13:41;;;;;;;9.18;1.58;;;;;;;9.36;66.55;102334.47;5115508;28;20430;-45
2022/02/07 12:16:17;;;;;;;13.32;2.03;;;;;;;9.21;66.73;102349.84;5115136;28;20051;-48
2022/02/07 12:18:48;;;;;;;11.18;1.40;;;;;;;9.33;67.57;102348.56;5115352;28;20051;-46
2022/02/07 12:21:19;;;;;;;11.48;1.50;;;;;;;9.20;68.36;102344.66;5115289;28;20055;-47
2022/02/07 12:23:53;;;;;;;10.38;1.50;;;;;;;9.20;68.80;102360.41;5115393;28;20057;-46
2022/02/07 12:26:23;;;;;;;8.30;1.35;;;;;;;9.10;69.98;102363.34;5115393;28;20655;-46
2022/02/07 12:28:58;;;;;;;10.43;1.70;;;;;;;9.12;70.38;102358.06;5115124;28;20071;-45
2022/02/07 12:31:29;;;;;;;10.85;2.00;;;;;;;9.08;70.71;102351.19;5114735;28;20478;-45
2022/02/07 12:33:59;;;;;;;9.38;1.55;;;;;;;9.27;68.06;102356.66;5114748;28;20040;-46
2022/02/07 12:36:31;;;;;;;8.90;1.77;;;;;;;9.08;68.70;102374.81;5114550;28;20059;-54
2022/02/07 12:39:02;;;;;;;11.20;1.60;;;;;;;8.83;68.87;102378.28;5114834;28;20051;-54
2022/02/07 12:41:33;;;;;;;11.63;1.90;;;;;;;8.72;70.91;102381.25;5114754;28;20047;-56
2022/02/07 12:44:03;;;;;;;13.15;1.98;;;;;;;8.49;71.16;102389.84;5114749;28;20047;-53
2022/02/07 12:46:33;;;;;;;14.90;2.03;;;;;;;8.35;73.34;102389.41;5114970;28;20562;-56
2022/02/07 12:49:10;;;;;;;7.85;1.83;;;;;;;8.34;73.73;102392.94;5114603;28;20054;-56
2022/02/07 12:51:43;;;;;;;17.05;2.13;;;;;;;8.43;73.56;102396.13;5114545;28;20138;-55
2022/02/07 12:54:12;;;;;;;15.80;1.90;;;;;;;8.87;73.51;102397.41;5114648;28;20047;-55
2022/02/07 12:56:42;;;;;;;14.18;1.98;;;;;;;8.96;73.02;102413.69;5114687;28;20363;-56
2022/02/07 12:59:10;;;;;;;9.63;1.60;;;;;;;8.96;68.33;102407.59;5114488;28;20130;-55
2022/02/07 13:01:42;;;;;;;6.32;1.23;;;;;;;8.96;66.66;102407.59;5114459;28;20086;-55
2022/02/07 13:04:18;;;;;;;10.85;1.60;;;;;;;9.03;66.03;102418.75;5114510;28;20082;-56
2022/02/07 13:06:48;;;;;;;11.60;2.10;;;;;;;8.83;66.52;102420.25;5114215;28;20401;-54
2022/02/07 13:09:24;;;;;;;6.15;1.08;;;;;;;8.77;67.09;102428.34;5114352;28;20109;-55
2022/02/07 13:12:02;;;;;;;9.43;1.40;;;;;;;9.02;67.18;102422.28;5114289;28;20048;-55
2022/02/07 13:14:33;;;;;;;7.90;1.75;;;;;;;8.77;66.14;102423.09;5114050;28;20429;-55
2022/02/07 13:17:02;;;;;;;6.13;1.17;;;;;;;8.87;66.91;102437.59;5114107;28;20059;-54
2022/02/07 13:19:36;;;;;;;7.68;1.67;;;;;;;8.66;67.13;102447.03;5114146;28;20051;-54